createdAt,value
2022-12-04T00:00:17.920Z,0.3
2022-12-04T00:01:17.764Z,0.3
2022-12-04T00:02:18.005Z,0.3
2022-12-04T00:03:17.829Z,0.3
2022-12-04T00:04:18.003Z,0.3
2022-12-04T00:05:17.766Z,0.3
2022-12-04T00:06:17.999Z,0.3
2022-12-04T00:07:18.283Z,0.3
2022-12-04T00:08:18.089Z,0.3
2022-12-04T00:09:17.767Z,0.3
2022-12-04T00:10:17.761Z,0.3
2022-12-04T00:11:17.764Z,0.3
2022-12-04T00:12:17.766Z,0.3
2022-12-04T00:13:17.786Z,0.3
2022-12-04T00:14:17.759Z,0.3
2022-12-04T00:15:26.110Z,0.3
2022-12-04T00:16:17.818Z,0.3
2022-12-04T00:17:17.759Z,0.3
2022-12-04T00:18:17.779Z,0.3
2022-12-04T00:19:17.778Z,0.3
2022-12-04T00:20:17.762Z,0.3
2022-12-04T00:21:17.787Z,0.3
2022-12-04T00:22:17.764Z,0.3
2022-12-04T00:23:17.764Z,0.3
2022-12-04T00:24:17.779Z,0.3
2022-12-04T00:25:17.764Z,0.3
2022-12-04T00:26:17.759Z,0.3
2022-12-04T00:27:19.301Z,0.3
2022-12-04T00:28:17.764Z,0.3
2022-12-04T00:29:17.784Z,0.3
2022-12-04T00:30:17.780Z,0.3
2022-12-04T00:31:17.810Z,0.3
2022-12-04T00:32:17.763Z,0.3
2022-12-04T00:33:17.761Z,0.3
2022-12-04T00:34:17.925Z,0.3
2022-12-04T00:35:17.766Z,0.3
2022-12-04T00:36:17.761Z,0.3
2022-12-04T00:37:17.758Z,0.3
2022-12-04T00:38:17.947Z,0.3
2022-12-04T00:39:17.779Z,0.3
2022-12-04T00:40:17.761Z,0.3
2022-12-04T00:41:17.800Z,0.3
2022-12-04T00:42:17.763Z,0.3
2022-12-04T00:43:17.772Z,0.3
2022-12-04T00:44:17.773Z,0.3
2022-12-04T00:45:17.761Z,0.3
2022-12-04T00:46:17.830Z,0.3
2022-12-04T00:47:17.763Z,0.3
2022-12-04T00:48:17.765Z,0.3
2022-12-04T00:49:17.759Z,0.3
2022-12-04T00:50:17.758Z,0.3
2022-12-04T00:51:17.759Z,0.3
2022-12-04T00:52:17.759Z,0.3
2022-12-04T00:53:17.769Z,0.3
2022-12-04T00:54:17.763Z,0.3
2022-12-04T00:55:17.764Z,0.3
2022-12-04T00:56:18.744Z,0.3
2022-12-04T00:57:17.764Z,0.3
2022-12-04T00:58:17.773Z,0.3
2022-12-04T00:59:17.761Z,0.3
2022-12-04T01:00:17.761Z,0.3
2022-12-04T01:01:17.797Z,0.3
2022-12-04T01:02:17.759Z,0.3
2022-12-04T01:03:17.825Z,0.3
2022-12-04T01:04:17.759Z,0.3
2022-12-04T01:05:17.759Z,0.3
2022-12-04T01:06:17.764Z,0.3
2022-12-04T01:07:17.767Z,0.3
2022-12-04T01:08:17.835Z,0.3
2022-12-04T01:09:17.758Z,0.3
2022-12-04T01:10:17.764Z,0.3
2022-12-04T01:11:17.758Z,0.3
2022-12-04T01:12:20.653Z,0.3
2022-12-04T01:13:17.765Z,0.3
2022-12-04T01:14:17.767Z,0.3
2022-12-04T01:15:17.761Z,0.3
2022-12-04T01:16:17.785Z,0.3
2022-12-04T01:17:17.761Z,0.3
2022-12-04T01:18:17.762Z,0.3
2022-12-04T01:19:17.758Z,0.3
2022-12-04T01:20:17.758Z,0.3
2022-12-04T01:21:17.764Z,0.3
2022-12-04T01:22:17.760Z,0.4
2022-12-04T01:23:17.766Z,0.4
2022-12-04T01:24:17.760Z,0.4
2022-12-04T01:25:17.762Z,0.4
2022-12-04T01:26:17.758Z,0.4
2022-12-04T01:27:17.762Z,0.4
2022-12-04T01:28:17.762Z,0.4
2022-12-04T01:29:17.779Z,0.3
2022-12-04T01:30:17.760Z,0.4
2022-12-04T01:31:17.840Z,0.4
2022-12-04T01:32:17.760Z,0.4
2022-12-04T01:33:17.758Z,0.4
2022-12-04T01:34:17.763Z,0.4
2022-12-04T01:35:17.773Z,0.4
2022-12-04T01:36:17.763Z,0.4
2022-12-04T01:37:17.760Z,0.4
2022-12-04T01:38:17.767Z,0.4
2022-12-04T01:39:17.759Z,0.4
2022-12-04T01:40:17.765Z,0.4
2022-12-04T01:41:17.760Z,0.4
2022-12-04T01:42:17.761Z,0.4
2022-12-04T01:43:17.761Z,0.4
2022-12-04T01:44:17.779Z,0.4
2022-12-04T01:45:17.761Z,0.4
2022-12-04T01:46:17.810Z,0.4
2022-12-04T01:47:17.760Z,0.4
2022-12-04T01:48:17.761Z,0.3
2022-12-04T01:49:17.757Z,0.3
2022-12-04T01:50:17.763Z,0.3
2022-12-04T01:51:17.762Z,0.3
2022-12-04T01:52:17.761Z,0.3
2022-12-04T01:53:17.762Z,0.3
2022-12-04T01:54:17.757Z,0.3
2022-12-04T01:55:17.758Z,0.3
2022-12-04T01:56:17.910Z,0.3
2022-12-04T01:57:18.118Z,0.3
2022-12-04T01:58:17.925Z,0.3
2022-12-04T01:59:17.772Z,0.3
2022-12-04T02:00:17.815Z,0.3
2022-12-04T02:01:17.773Z,0.2
2022-12-04T02:02:17.816Z,0.3
2022-12-04T02:03:17.756Z,0.3
2022-12-04T02:04:17.765Z,0.3
2022-12-04T02:05:17.764Z,0.2
2022-12-04T02:06:17.763Z,0.2
2022-12-04T02:07:17.757Z,0.2
2022-12-04T02:08:17.799Z,0.2
2022-12-04T02:09:21.665Z,0.2
2022-12-04T02:10:17.756Z,0.2
2022-12-04T02:11:17.775Z,0.2
2022-12-04T02:12:17.762Z,0.2
2022-12-04T02:13:17.755Z,0.2
2022-12-04T02:14:17.761Z,0.2
2022-12-04T02:15:17.759Z,0.2
2022-12-04T02:16:17.801Z,0.2
2022-12-04T02:17:17.761Z,0.2
2022-12-04T02:18:17.763Z,0.2
2022-12-04T02:19:17.760Z,0.2
2022-12-04T02:20:17.765Z,0.2
2022-12-04T02:21:17.763Z,0.2
2022-12-04T02:22:17.774Z,0.2
2022-12-04T02:23:17.766Z,0.2
2022-12-04T02:24:17.764Z,0.2
2022-12-04T02:25:17.763Z,0.2
2022-12-04T02:26:17.766Z,0.2
2022-12-04T02:27:17.763Z,0.2
2022-12-04T02:28:17.778Z,0.2
2022-12-04T02:29:17.757Z,0.2
2022-12-04T02:30:17.781Z,0.2
2022-12-04T02:31:17.791Z,0.2
2022-12-04T02:32:17.768Z,0.2
2022-12-04T02:33:17.777Z,0.2
2022-12-04T02:34:17.761Z,0.3
2022-12-04T02:35:17.762Z,0.3
2022-12-04T02:36:17.762Z,0.3
2022-12-04T02:37:17.763Z,0.3
2022-12-04T02:38:17.997Z,0.3
2022-12-04T02:39:17.763Z,0.3
2022-12-04T02:40:17.758Z,0.3
2022-12-04T02:41:17.760Z,0.3
2022-12-04T02:42:17.760Z,0.3
2022-12-04T02:43:17.784Z,0.3
2022-12-04T02:44:17.763Z,0.3
2022-12-04T02:45:17.757Z,0.3
2022-12-04T02:46:17.838Z,0.3
2022-12-04T02:47:17.760Z,0.3
2022-12-04T02:48:17.779Z,0.3
2022-12-04T02:49:17.761Z,0.3
2022-12-04T02:50:17.766Z,0.3
2022-12-04T02:51:17.764Z,0.3
2022-12-04T02:52:17.765Z,0.3
2022-12-04T02:53:17.787Z,0.3
2022-12-04T02:54:17.760Z,0.3
2022-12-04T02:55:17.772Z,0.3
2022-12-04T02:56:17.761Z,0.3
2022-12-04T02:57:17.768Z,0.3
2022-12-04T02:58:17.785Z,0.3
2022-12-04T02:59:17.761Z,0.3
2022-12-04T03:00:17.764Z,0.3
2022-12-04T03:01:17.784Z,0.3
2022-12-04T03:02:17.919Z,0.3
2022-12-04T03:03:17.787Z,0.3
2022-12-04T03:04:17.778Z,0.4
2022-12-04T03:05:17.951Z,0.4
2022-12-04T03:06:17.763Z,0.4
2022-12-04T03:07:17.769Z,0.4
2022-12-04T03:08:17.820Z,0.4
2022-12-04T03:09:17.757Z,0.4
2022-12-04T03:10:17.758Z,0.4
2022-12-04T03:11:17.766Z,0.4
2022-12-04T03:12:17.806Z,0.4
2022-12-04T03:13:18.035Z,0.4
2022-12-04T03:14:17.761Z,0.4
2022-12-04T03:15:17.758Z,0.4
2022-12-04T03:16:17.797Z,0.4
2022-12-04T03:17:17.768Z,0.4
2022-12-04T03:18:17.793Z,0.4
2022-12-04T03:19:17.962Z,0.4
2022-12-04T03:20:17.760Z,0.4
2022-12-04T03:21:17.766Z,0.4
2022-12-04T03:22:17.777Z,0.4
2022-12-04T03:23:17.785Z,0.4
2022-12-04T03:24:17.759Z,0.4
2022-12-04T03:25:17.759Z,0.5
2022-12-04T03:26:17.987Z,0.4
2022-12-04T03:27:18.271Z,0.5
2022-12-04T03:28:17.781Z,0.5
2022-12-04T03:29:18.007Z,0.5
2022-12-04T03:30:18.198Z,0.5
2022-12-04T03:31:17.818Z,0.5
2022-12-04T03:32:17.763Z,0.5
2022-12-04T03:33:17.787Z,0.5
2022-12-04T03:34:17.919Z,0.5
2022-12-04T03:35:17.765Z,0.5
2022-12-04T03:36:17.933Z,0.5
2022-12-04T03:37:17.760Z,0.5
2022-12-04T03:38:17.980Z,0.5
2022-12-04T03:39:17.758Z,0.5
2022-12-04T03:40:17.999Z,0.5
2022-12-04T03:41:17.762Z,0.5
2022-12-04T03:42:18.010Z,0.5
2022-12-04T03:43:17.795Z,0.5
2022-12-04T03:44:18.050Z,0.5
2022-12-04T03:45:17.766Z,0.5
2022-12-04T03:46:17.826Z,0.5
2022-12-04T03:47:17.776Z,0.5
2022-12-04T03:48:22.606Z,0.5
2022-12-04T03:49:17.759Z,0.5
2022-12-04T03:50:17.760Z,0.5
2022-12-04T03:51:17.761Z,0.5
2022-12-04T03:52:17.758Z,0.5
2022-12-04T03:53:17.824Z,0.5
2022-12-04T03:54:17.773Z,0.5
2022-12-04T03:55:17.766Z,0.5
2022-12-04T03:56:17.769Z,0.5
2022-12-04T03:57:17.763Z,0.5
2022-12-04T03:58:17.778Z,0.5
2022-12-04T03:59:17.763Z,0.5
2022-12-04T04:00:17.794Z,0.5
2022-12-04T04:01:17.792Z,0.5
2022-12-04T04:02:17.789Z,0.5
2022-12-04T04:03:17.783Z,0.5
2022-12-04T04:04:17.758Z,0.5
2022-12-04T04:05:17.759Z,0.5
2022-12-04T04:06:17.764Z,0.5
2022-12-04T04:07:17.759Z,0.5
2022-12-04T04:08:17.997Z,0.5
2022-12-04T04:09:17.764Z,0.5
2022-12-04T04:10:17.773Z,0.5
2022-12-04T04:11:17.768Z,0.5
2022-12-04T04:12:17.766Z,0.5
2022-12-04T04:13:17.788Z,0.5
2022-12-04T04:14:18.130Z,0.5
2022-12-04T04:15:17.758Z,0.5
2022-12-04T04:16:17.806Z,0.5
2022-12-04T04:17:17.767Z,0.5
2022-12-04T04:18:17.784Z,0.5
2022-12-04T04:19:17.762Z,0.5
2022-12-04T04:20:17.759Z,0.5
2022-12-04T04:21:17.761Z,0.5
2022-12-04T04:22:17.763Z,0.5
2022-12-04T04:23:17.778Z,0.5
2022-12-04T04:24:17.759Z,0.5
2022-12-04T04:25:17.764Z,0.5
2022-12-04T04:26:17.763Z,0.5
2022-12-04T04:27:17.761Z,0.5
2022-12-04T04:28:17.772Z,0.5
2022-12-04T04:29:17.761Z,0.5
2022-12-04T04:30:17.777Z,0.5
2022-12-04T04:31:17.838Z,0.5
2022-12-04T04:32:17.764Z,0.5
2022-12-04T04:33:17.762Z,0.5
2022-12-04T04:34:17.759Z,0.5
2022-12-04T04:35:17.780Z,0.5
2022-12-04T04:36:17.757Z,0.5
2022-12-04T04:37:17.764Z,0.5
2022-12-04T04:38:17.772Z,0.5
2022-12-04T04:39:17.760Z,0.5
2022-12-04T04:40:17.773Z,0.5
2022-12-04T04:41:17.765Z,0.5
2022-12-04T04:42:17.757Z,0.5
2022-12-04T04:43:17.766Z,0.5
2022-12-04T04:44:17.759Z,0.5
2022-12-04T04:45:17.760Z,0.5
2022-12-04T04:46:17.865Z,0.5
2022-12-04T04:47:17.758Z,0.5
2022-12-04T04:48:17.766Z,0.5
2022-12-04T04:49:17.758Z,0.5
2022-12-04T04:50:17.771Z,0.5
2022-12-04T04:51:17.763Z,0.5
2022-12-04T04:52:17.759Z,0.5
2022-12-04T04:53:17.767Z,0.5
2022-12-04T04:54:17.780Z,0.5
2022-12-04T04:55:17.901Z,0.5
2022-12-04T04:56:17.763Z,0.5
2022-12-04T04:57:17.763Z,0.5
2022-12-04T04:58:17.764Z,0.5
2022-12-04T04:59:17.773Z,0.5
2022-12-04T05:00:17.760Z,0.5
2022-12-04T05:01:17.839Z,0.5
2022-12-04T05:02:17.761Z,0.5
2022-12-04T05:03:17.858Z,0.6
2022-12-04T05:04:17.760Z,0.5
2022-12-04T05:05:17.763Z,0.5
2022-12-04T05:06:17.780Z,0.6
2022-12-04T05:07:17.772Z,0.6
2022-12-04T05:08:17.849Z,0.6
2022-12-04T05:09:17.762Z,0.6
2022-12-04T05:10:17.765Z,0.6
2022-12-04T05:11:17.778Z,0.6
2022-12-04T05:12:17.782Z,0.6
2022-12-04T05:13:17.767Z,0.6
2022-12-04T05:14:17.779Z,0.6
2022-12-04T05:15:17.767Z,0.6
2022-12-04T05:16:17.804Z,0.6
2022-12-04T05:17:17.778Z,0.6
2022-12-04T05:18:17.759Z,0.6
2022-12-04T05:19:17.760Z,0.6
2022-12-04T05:20:17.777Z,0.6
2022-12-04T05:21:17.862Z,0.6
2022-12-04T05:22:17.779Z,0.6
2022-12-04T05:23:17.759Z,0.6
2022-12-04T05:24:17.760Z,0.6
2022-12-04T05:25:17.860Z,0.6
2022-12-04T05:26:17.767Z,0.6
2022-12-04T05:27:17.767Z,0.6
2022-12-04T05:28:17.762Z,0.6
2022-12-04T05:29:17.757Z,0.6
2022-12-04T05:30:17.758Z,0.6
2022-12-04T05:31:17.787Z,0.6
2022-12-04T05:32:17.888Z,0.6
2022-12-04T05:33:17.761Z,0.6
2022-12-04T05:34:17.938Z,0.6
2022-12-04T05:35:17.769Z,0.6
2022-12-04T05:36:17.766Z,0.6
2022-12-04T05:37:17.763Z,0.6
2022-12-04T05:38:17.784Z,0.6
2022-12-04T05:39:17.763Z,0.6
2022-12-04T05:40:17.757Z,0.6
2022-12-04T05:41:17.758Z,0.6
2022-12-04T05:42:17.764Z,0.6
2022-12-04T05:43:17.777Z,0.6
2022-12-04T05:44:17.772Z,0.6
2022-12-04T05:45:17.764Z,0.6
2022-12-04T05:46:17.775Z,0.6
2022-12-04T05:47:17.768Z,0.6
2022-12-04T05:48:17.772Z,0.6
2022-12-04T05:49:17.830Z,0.6
2022-12-04T05:50:17.765Z,0.6
2022-12-04T05:51:17.766Z,0.6
2022-12-04T05:52:17.764Z,0.6
2022-12-04T05:53:17.762Z,0.6
2022-12-04T05:54:17.779Z,0.7
2022-12-04T05:55:17.761Z,0.7
2022-12-04T05:56:17.761Z,0.7
2022-12-04T05:57:17.766Z,0.7
2022-12-04T05:58:17.765Z,0.7
2022-12-04T05:59:17.775Z,0.7
2022-12-04T06:00:17.765Z,0.7
2022-12-04T06:01:17.772Z,0.7
2022-12-04T06:02:17.802Z,0.6
2022-12-04T06:03:17.804Z,0.7
2022-12-04T06:04:17.781Z,0.6
2022-12-04T06:05:17.764Z,0.6
2022-12-04T06:06:21.304Z,0.7
2022-12-04T06:07:17.763Z,0.7
2022-12-04T06:08:17.788Z,0.7
2022-12-04T06:09:17.776Z,0.7
2022-12-04T06:10:17.760Z,0.7
2022-12-04T06:11:17.758Z,0.7
2022-12-04T06:12:17.783Z,0.7
2022-12-04T06:13:17.769Z,0.7
2022-12-04T06:14:17.786Z,0.7
2022-12-04T06:15:17.768Z,0.7
2022-12-04T06:16:17.804Z,0.7
2022-12-04T06:17:17.771Z,0.7
2022-12-04T06:18:17.766Z,0.7
2022-12-04T06:19:17.782Z,0.7
2022-12-04T06:20:17.780Z,0.7
2022-12-04T06:21:17.768Z,0.7
2022-12-04T06:22:17.768Z,0.7
2022-12-04T06:23:17.764Z,0.7
2022-12-04T06:24:17.784Z,0.7
2022-12-04T06:25:17.766Z,0.7
2022-12-04T06:26:17.759Z,0.7
2022-12-04T06:27:28.780Z,0.7
2022-12-04T06:28:17.760Z,0.7
2022-12-04T06:29:17.776Z,0.7
2022-12-04T06:30:17.777Z,0.7
2022-12-04T06:31:17.803Z,0.7
2022-12-04T06:32:21.376Z,0.7
2022-12-04T06:33:17.761Z,0.7
2022-12-04T06:34:17.775Z,0.7
2022-12-04T06:35:17.758Z,0.7
2022-12-04T06:36:17.758Z,0.7
2022-12-04T06:37:17.766Z,0.7
2022-12-04T06:38:17.763Z,0.7
2022-12-04T06:39:19.058Z,0.7
2022-12-04T06:40:17.959Z,0.7
2022-12-04T06:41:17.766Z,0.7
2022-12-04T06:42:17.769Z,0.7
2022-12-04T06:43:17.764Z,0.7
2022-12-04T06:44:17.798Z,0.7
2022-12-04T06:45:17.803Z,0.7
2022-12-04T06:46:18.164Z,0.7
2022-12-04T06:47:18.364Z,0.7
2022-12-04T06:48:18.033Z,0.7
2022-12-04T06:49:17.763Z,0.7
2022-12-04T06:50:17.764Z,0.7
2022-12-04T06:51:17.762Z,0.7
2022-12-04T06:52:17.768Z,0.7
2022-12-04T06:53:17.763Z,0.7
2022-12-04T06:54:17.763Z,0.8
2022-12-04T06:55:17.764Z,0.8
2022-12-04T06:56:17.765Z,0.8
2022-12-04T06:57:17.762Z,0.8
2022-12-04T06:58:17.859Z,0.8
2022-12-04T06:59:17.775Z,0.8
2022-12-04T07:00:18.141Z,0.8
2022-12-04T07:01:18.398Z,0.8
2022-12-04T07:02:17.959Z,0.8
2022-12-04T07:03:17.800Z,0.8
2022-12-04T07:04:18.024Z,0.8
2022-12-04T07:05:17.785Z,0.8
2022-12-04T07:06:17.762Z,0.8
2022-12-04T07:07:17.767Z,0.8
2022-12-04T07:08:17.784Z,0.8
2022-12-04T07:09:17.762Z,0.8
2022-12-04T07:10:17.851Z,0.8
2022-12-04T07:11:18.036Z,0.8
2022-12-04T07:12:18.360Z,0.8
2022-12-04T07:13:17.764Z,0.8
2022-12-04T07:14:17.937Z,0.8
2022-12-04T07:15:17.769Z,0.8
2022-12-04T07:16:18.070Z,0.8
2022-12-04T07:17:17.949Z,0.8
2022-12-04T07:18:17.763Z,0.8
2022-12-04T07:19:17.941Z,0.8
2022-12-04T07:20:17.766Z,0.8
2022-12-04T07:21:17.783Z,0.8
2022-12-04T07:22:17.761Z,0.8
2022-12-04T07:23:17.767Z,0.8
2022-12-04T07:24:17.761Z,0.8
2022-12-04T07:25:17.770Z,0.8
2022-12-04T07:26:17.935Z,0.8
2022-12-04T07:27:17.768Z,0.8
2022-12-04T07:28:17.763Z,0.8
2022-12-04T07:29:17.758Z,0.8
2022-12-04T07:30:17.771Z,0.8
2022-12-04T07:31:17.814Z,0.8
2022-12-04T07:32:17.824Z,0.8
2022-12-04T07:33:17.759Z,0.8
2022-12-04T07:34:17.761Z,0.8
2022-12-04T07:35:17.759Z,0.8
2022-12-04T07:36:17.784Z,0.8
2022-12-04T07:37:17.769Z,0.8
2022-12-04T07:38:17.764Z,0.8
2022-12-04T07:39:17.763Z,0.8
2022-12-04T07:40:17.942Z,0.8
2022-12-04T07:41:17.775Z,0.8
2022-12-04T07:42:22.604Z,0.8
2022-12-04T07:43:17.764Z,0.8
2022-12-04T07:44:17.758Z,0.8
2022-12-04T07:45:17.766Z,0.8
2022-12-04T07:46:17.826Z,0.8
2022-12-04T07:47:17.757Z,0.8
2022-12-04T07:48:17.761Z,0.8
2022-12-04T07:49:17.759Z,0.8
2022-12-04T07:50:17.942Z,0.8
2022-12-04T07:51:17.777Z,0.8
2022-12-04T07:52:17.761Z,0.9
2022-12-04T07:53:17.766Z,0.9
2022-12-04T07:54:17.803Z,0.9
2022-12-04T07:55:22.923Z,0.9
2022-12-04T07:56:17.786Z,0.9
2022-12-04T07:57:17.766Z,0.9
2022-12-04T07:58:17.759Z,0.9
2022-12-04T07:59:17.761Z,0.9
2022-12-04T08:00:17.761Z,0.9
2022-12-04T08:01:17.859Z,0.9
2022-12-04T08:02:17.766Z,0.9
2022-12-04T08:03:17.759Z,0.9
2022-12-04T08:04:17.780Z,0.9
2022-12-04T08:05:17.766Z,0.9
2022-12-04T08:06:17.801Z,0.9
2022-12-04T08:07:17.766Z,0.9
2022-12-04T08:08:17.966Z,0.9
2022-12-04T08:09:17.764Z,0.9
2022-12-04T08:10:17.757Z,0.9
2022-12-04T08:11:17.786Z,1
2022-12-04T08:12:17.757Z,1
2022-12-04T08:13:17.763Z,1
2022-12-04T08:14:17.758Z,1
2022-12-04T08:15:17.762Z,1
2022-12-04T08:16:17.819Z,1
2022-12-04T08:17:17.787Z,1
2022-12-04T08:18:17.759Z,1
2022-12-04T08:19:17.757Z,1
2022-12-04T08:20:17.768Z,1
2022-12-04T08:21:17.766Z,1
2022-12-04T08:22:21.801Z,1
2022-12-04T08:23:17.759Z,1
2022-12-04T08:24:17.766Z,1
2022-12-04T08:25:17.771Z,1.1
2022-12-04T08:26:17.764Z,1.1
2022-12-04T08:27:17.766Z,1.1
2022-12-04T08:28:17.764Z,1.1
2022-12-04T08:29:17.759Z,1.1
2022-12-04T08:30:17.783Z,1.1
2022-12-04T08:31:17.807Z,1.1
2022-12-04T08:32:17.759Z,1.1
2022-12-04T08:33:17.768Z,1.1
2022-12-04T08:34:17.764Z,1.1
2022-12-04T08:35:17.785Z,1.1
2022-12-04T08:36:17.760Z,1.1
2022-12-04T08:37:17.762Z,1.1
2022-12-04T08:38:17.765Z,1.1
2022-12-04T08:39:17.760Z,1.1
2022-12-04T08:40:17.949Z,1.1
2022-12-04T08:41:17.762Z,1.1
2022-12-04T08:42:17.762Z,1.1
2022-12-04T08:43:17.761Z,1.1
2022-12-04T08:44:17.761Z,1.1
2022-12-04T08:45:17.969Z,1.1
2022-12-04T08:46:17.852Z,1.1
2022-12-04T08:47:17.764Z,1.1
2022-12-04T08:48:17.760Z,1.1
2022-12-04T08:49:17.869Z,1.1
2022-12-04T08:50:17.778Z,1.1
2022-12-04T08:51:17.762Z,1.1
2022-12-04T08:52:17.762Z,1.2
2022-12-04T08:53:17.762Z,1.2
2022-12-04T08:54:17.762Z,1.2
2022-12-04T08:55:17.774Z,1.2
2022-12-04T08:56:17.780Z,1.2
2022-12-04T08:57:17.766Z,1.2
2022-12-04T08:58:17.757Z,1.2
2022-12-04T08:59:17.762Z,1.3
2022-12-04T09:00:17.760Z,1.3
2022-12-04T09:01:17.790Z,1.3
2022-12-04T09:02:17.762Z,1.3
2022-12-04T09:03:17.763Z,1.3
2022-12-04T09:04:17.806Z,1.3
2022-12-04T09:05:17.768Z,1.4
2022-12-04T09:06:17.766Z,1.4
2022-12-04T09:07:17.941Z,1.4
2022-12-04T09:08:17.842Z,1.4
2022-12-04T09:09:18.007Z,1.4
2022-12-04T09:10:17.762Z,1.4
2022-12-04T09:11:17.759Z,1.4
2022-12-04T09:12:17.760Z,1.4
2022-12-04T09:13:17.763Z,1.4
2022-12-04T09:14:17.780Z,1.4
2022-12-04T09:15:17.773Z,1.4
2022-12-04T09:16:17.847Z,1.4
2022-12-04T09:17:17.953Z,1.4
2022-12-04T09:18:17.761Z,1.4
2022-12-04T09:19:17.771Z,1.4
2022-12-04T09:20:17.759Z,1.4
2022-12-04T09:21:17.778Z,1.4
2022-12-04T09:22:17.764Z,1.4
2022-12-04T09:23:17.804Z,1.4
2022-12-04T09:24:17.764Z,1.4
2022-12-04T09:25:17.759Z,1.4
2022-12-04T09:26:17.784Z,1.4
2022-12-04T09:27:17.763Z,1.5
2022-12-04T09:28:17.777Z,1.5
2022-12-04T09:29:17.763Z,1.5
2022-12-04T09:30:17.767Z,1.5
2022-12-04T09:31:17.827Z,1.5
2022-12-04T09:32:17.764Z,1.5
2022-12-04T09:33:17.762Z,1.5
2022-12-04T09:34:17.764Z,1.5
2022-12-04T09:35:17.765Z,1.5
2022-12-04T09:36:17.781Z,1.5
2022-12-04T09:37:17.761Z,1.6
2022-12-04T09:38:17.762Z,1.5
2022-12-04T09:39:17.764Z,1.5
2022-12-04T09:40:17.762Z,1.6
2022-12-04T09:41:17.775Z,1.6
2022-12-04T09:42:17.761Z,1.6
2022-12-04T09:43:17.764Z,1.6
2022-12-04T09:44:17.768Z,1.6
2022-12-04T09:45:17.764Z,1.6
2022-12-04T09:46:17.814Z,1.6
2022-12-04T09:47:17.766Z,1.6
2022-12-04T09:48:17.759Z,1.6
2022-12-04T09:49:17.759Z,1.7
2022-12-04T09:50:17.760Z,1.7
2022-12-04T09:51:17.763Z,1.7
2022-12-04T09:52:21.799Z,1.7
2022-12-04T09:53:17.766Z,1.7
2022-12-04T09:54:17.760Z,1.7
2022-12-04T09:55:17.764Z,1.7
2022-12-04T09:56:17.764Z,1.7
2022-12-04T09:57:17.764Z,1.7
2022-12-04T09:58:17.762Z,1.8
2022-12-04T09:59:17.765Z,1.8
2022-12-04T10:00:17.765Z,1.8
2022-12-04T10:01:17.760Z,1.8
2022-12-04T10:02:17.914Z,1.8
2022-12-04T10:03:17.896Z,1.8
2022-12-04T10:04:17.802Z,1.8
2022-12-04T10:05:17.763Z,1.8
2022-12-04T10:06:17.761Z,1.8
2022-12-04T10:07:17.763Z,1.8
2022-12-04T10:08:17.821Z,1.8
2022-12-04T10:09:17.758Z,1.8
2022-12-04T10:10:17.777Z,1.8
2022-12-04T10:11:17.764Z,1.8
2022-12-04T10:12:17.924Z,1.8
2022-12-04T10:13:17.770Z,1.8
2022-12-04T10:14:17.764Z,1.8
2022-12-04T10:15:17.763Z,1.8
2022-12-04T10:16:17.836Z,1.8
2022-12-04T10:17:17.766Z,1.8
2022-12-04T10:18:17.764Z,1.8
2022-12-04T10:19:17.759Z,1.8
2022-12-04T10:20:17.759Z,1.8
2022-12-04T10:21:17.902Z,1.8
2022-12-04T10:22:18.225Z,1.8
2022-12-04T10:23:18.462Z,1.8
2022-12-04T10:24:17.763Z,1.8
2022-12-04T10:25:17.761Z,1.8
2022-12-04T10:26:17.768Z,1.8
2022-12-04T10:27:17.765Z,1.8
2022-12-04T10:28:17.764Z,1.8
2022-12-04T10:29:17.764Z,1.8
2022-12-04T10:30:17.770Z,1.8
2022-12-04T10:31:17.836Z,1.8
2022-12-04T10:32:17.793Z,1.8
2022-12-04T10:33:18.018Z,1.8
2022-12-04T10:34:18.350Z,1.8
2022-12-04T10:35:17.792Z,1.8
2022-12-04T10:36:18.054Z,1.8
2022-12-04T10:37:17.944Z,1.8
2022-12-04T10:38:17.768Z,1.9
2022-12-04T10:39:17.763Z,1.9
2022-12-04T10:40:17.761Z,1.9
2022-12-04T10:41:17.758Z,1.9
2022-12-04T10:42:17.758Z,1.9
2022-12-04T10:43:17.866Z,1.9
2022-12-04T10:44:17.759Z,1.9
2022-12-04T10:45:17.924Z,1.9
2022-12-04T10:46:17.810Z,1.9
2022-12-04T10:47:17.897Z,1.9
2022-12-04T10:48:17.758Z,1.9
2022-12-04T10:49:17.927Z,1.9
2022-12-04T10:50:17.767Z,1.9
2022-12-04T10:51:17.767Z,2
2022-12-04T10:52:17.927Z,2
2022-12-04T10:53:18.247Z,2
2022-12-04T10:54:17.917Z,2
2022-12-04T10:55:17.759Z,2
2022-12-04T10:56:17.763Z,2
2022-12-04T10:57:17.765Z,2
2022-12-04T10:58:17.761Z,2
2022-12-04T10:59:17.763Z,2
2022-12-04T11:00:17.764Z,2
2022-12-04T11:01:17.766Z,2
2022-12-04T11:02:17.850Z,2.1
2022-12-04T11:03:17.798Z,2.1
2022-12-04T11:04:17.762Z,2.1
2022-12-04T11:05:17.780Z,2.1
2022-12-04T11:06:17.821Z,2.1
2022-12-04T11:07:17.761Z,2.1
2022-12-04T11:08:19.900Z,2.1
2022-12-04T11:09:17.758Z,2.1
2022-12-04T11:10:17.768Z,2.1
2022-12-04T11:11:17.759Z,2.1
2022-12-04T11:12:17.765Z,2.1
2022-12-04T11:13:17.763Z,2.1
2022-12-04T11:14:17.783Z,2.1
2022-12-04T11:15:17.880Z,2.1
2022-12-04T11:16:17.868Z,2.1
2022-12-04T11:17:17.762Z,2.1
2022-12-04T11:18:17.892Z,2.1
2022-12-04T11:19:17.774Z,2.1
2022-12-04T11:20:17.762Z,2.1
2022-12-04T11:21:17.780Z,2.1
2022-12-04T11:22:17.759Z,2.1
2022-12-04T11:23:17.760Z,2.1
2022-12-04T11:24:17.765Z,2.1
2022-12-04T11:25:17.919Z,2.1
2022-12-04T11:26:17.790Z,2.1
2022-12-04T11:27:17.783Z,2.1
2022-12-04T11:28:33.745Z,2.1
2022-12-04T11:29:17.764Z,2.1
2022-12-04T11:30:17.780Z,2.1
2022-12-04T11:31:17.846Z,2.1
2022-12-04T11:32:17.763Z,2.1
2022-12-04T11:33:17.773Z,2.1
2022-12-04T11:34:17.780Z,2.1
2022-12-04T11:35:17.765Z,2.1
2022-12-04T11:36:17.783Z,2.1
2022-12-04T11:37:17.761Z,2.1
2022-12-04T11:38:17.764Z,2.1
2022-12-04T11:39:17.759Z,2.1
2022-12-04T11:40:17.808Z,2.1
2022-12-04T11:41:17.778Z,2.1
2022-12-04T11:42:17.759Z,2.1
2022-12-04T11:43:17.760Z,2.1
2022-12-04T11:44:17.901Z,2.1
2022-12-04T11:45:17.763Z,2.1
2022-12-04T11:46:17.797Z,2.2
2022-12-04T11:47:17.763Z,2.2
2022-12-04T11:48:17.761Z,2.2
2022-12-04T11:49:17.782Z,2.2
2022-12-04T11:50:17.764Z,2.2
2022-12-04T11:51:17.758Z,2.2
2022-12-04T11:52:17.764Z,2.2
2022-12-04T11:53:17.765Z,2.2
2022-12-04T11:54:17.780Z,2.2
2022-12-04T11:55:17.758Z,2.2
2022-12-04T11:56:17.760Z,2.2
2022-12-04T11:57:17.771Z,2.2
2022-12-04T11:58:17.757Z,2.2
2022-12-04T11:59:17.776Z,2.2
2022-12-04T12:00:17.762Z,2.2
2022-12-04T12:01:17.768Z,2.2
2022-12-04T12:02:17.843Z,2.2
2022-12-04T12:03:17.859Z,2.2
2022-12-04T12:04:17.758Z,2.2
2022-12-04T12:05:17.861Z,2.2
2022-12-04T12:06:17.759Z,2.2
2022-12-04T12:07:17.761Z,2.2
2022-12-04T12:08:17.759Z,2.2
2022-12-04T12:09:17.767Z,2.2
2022-12-04T12:10:17.763Z,2.3
2022-12-04T12:11:17.763Z,2.3
2022-12-04T12:12:17.760Z,2.3
2022-12-04T12:13:17.765Z,2.3
2022-12-04T12:14:17.767Z,2.3
2022-12-04T12:15:17.760Z,2.3
2022-12-04T12:16:17.786Z,2.3
2022-12-04T12:17:17.763Z,2.3
2022-12-04T12:18:19.197Z,2.3
2022-12-04T12:19:17.878Z,2.3
2022-12-04T12:20:17.759Z,2.3
2022-12-04T12:21:17.763Z,2.3
2022-12-04T12:22:17.862Z,2.3
2022-12-04T12:23:17.769Z,2.3
2022-12-04T12:24:17.763Z,2.3
2022-12-04T12:25:17.758Z,2.3
2022-12-04T12:26:17.759Z,2.3
2022-12-04T12:27:17.767Z,2.4
2022-12-04T12:28:17.762Z,2.4
2022-12-04T12:29:17.767Z,2.4
2022-12-04T12:30:17.764Z,2.4
2022-12-04T12:31:17.796Z,2.4
2022-12-04T12:32:17.877Z,2.4
2022-12-04T12:33:17.769Z,2.4
2022-12-04T12:34:17.759Z,2.4
2022-12-04T12:35:17.765Z,2.4
2022-12-04T12:36:17.759Z,2.4
2022-12-04T12:37:17.758Z,2.4
2022-12-04T12:38:17.764Z,2.4
2022-12-04T12:39:17.764Z,2.4
2022-12-04T12:40:17.758Z,2.4
2022-12-04T12:41:17.763Z,2.4
2022-12-04T12:42:17.876Z,2.4
2022-12-04T12:43:17.836Z,2.4
2022-12-04T12:44:18.039Z,2.4
2022-12-04T12:45:18.222Z,2.4
2022-12-04T12:46:17.800Z,2.4
2022-12-04T12:47:17.768Z,2.4
2022-12-04T12:48:17.758Z,2.4
2022-12-04T12:49:17.764Z,2.5
2022-12-04T12:50:17.759Z,2.5
2022-12-04T12:51:29.925Z,2.4
2022-12-04T12:52:17.765Z,2.5
2022-12-04T12:53:17.766Z,2.4
2022-12-04T12:54:17.758Z,2.5
2022-12-04T12:55:17.763Z,2.5
2022-12-04T12:56:17.767Z,2.5
2022-12-04T12:57:17.761Z,2.5
2022-12-04T12:58:17.764Z,2.5
2022-12-04T12:59:17.871Z,2.5
2022-12-04T13:00:17.760Z,2.5
2022-12-04T13:01:17.871Z,2.5
2022-12-04T13:02:18.167Z,2.5
2022-12-04T13:03:18.003Z,2.5
2022-12-04T13:04:17.759Z,2.5
2022-12-04T13:05:17.767Z,2.5
2022-12-04T13:06:17.762Z,2.5
2022-12-04T13:07:17.762Z,2.5
2022-12-04T13:08:17.848Z,2.5
2022-12-04T13:09:17.760Z,2.5
2022-12-04T13:10:17.762Z,2.4
2022-12-04T13:11:17.766Z,2.5
2022-12-04T13:12:17.761Z,2.4
2022-12-04T13:13:17.965Z,2.4
2022-12-04T13:14:17.765Z,2.4
2022-12-04T13:15:17.766Z,2.4
2022-12-04T13:16:17.804Z,2.4
2022-12-04T13:17:17.759Z,2.4
2022-12-04T13:18:17.764Z,2.4
2022-12-04T13:19:17.765Z,2.4
2022-12-04T13:20:17.761Z,2.4
2022-12-04T13:21:17.762Z,2.4
2022-12-04T13:22:17.765Z,2.4
2022-12-04T13:23:17.764Z,2.4
2022-12-04T13:24:17.771Z,2.4
2022-12-04T13:25:17.762Z,2.4
2022-12-04T13:26:17.766Z,2.4
2022-12-04T13:27:17.770Z,2.4
2022-12-04T13:28:17.768Z,2.4
2022-12-04T13:29:17.765Z,2.3
2022-12-04T13:30:17.761Z,2.4
2022-12-04T13:31:17.822Z,2.3
2022-12-04T13:32:19.396Z,2.3
2022-12-04T13:33:17.766Z,2.3
2022-12-04T13:34:17.758Z,2.3
2022-12-04T13:35:17.759Z,2.3
2022-12-04T13:36:17.764Z,2.3
2022-12-04T13:37:17.764Z,2.4
2022-12-04T13:38:17.758Z,2.4
2022-12-04T13:39:17.784Z,2.4
2022-12-04T13:40:17.761Z,2.4
2022-12-04T13:41:17.773Z,2.4
2022-12-04T13:42:17.766Z,2.4
2022-12-04T13:43:17.764Z,2.3
2022-12-04T13:44:17.763Z,2.4
2022-12-04T13:45:17.760Z,2.4
2022-12-04T13:46:17.785Z,2.4
2022-12-04T13:47:17.764Z,2.4